Impacts METAR Board
IDs:

KEWR - Newark Intl, NJ, US

Updated at: 2200 UTC 20 Jun 2019
Potential Impact None Slight Moderate High
Time 20/10Z 20/11Z 20/12Z 20/13Z 20/14Z 20/15Z 20/16Z 20/17Z 20/18Z 20/19Z 20/20Z 20/21Z 20/22Z
Temp66 67 68 68 70 72 73 77 78 75 76 75 76
Dewpt66 67 67 68 69 70 70 72 72 72 73 73 73
Altim29.67 29.66 29.65 29.63 29.63 29.61 29.60 29.57 29.54 29.51 29.50 29.48 29.48
VIS0.5 2 2 0.5 1.5 1.5 6 6 8 2.5 7 7 10
CIG2 3 3 2 3 4 5 7 12 14 35 100 130
CoverOVCOVCOVCOVCOVCOVCOVCOVCOVCOVCBKNBKNBKN
FltCatLIFRLIFRLIFRLIFRLIFRLIFRIFRIFRMVFRIFRVFRVFRVFR
WX-RA BR-RA BRBRBRBR-DZ BRBRHZ--+RA BR-RA-RA--
WDir406030906040700500090120
WSpd6 4 5 5 3 3 4 0 5 0 4 5 5
WGst-- -- -- -- -- -- -- -- -- -- -- -- --
Raw hourly METARs
KEWR 200951Z 04006KT 1/2SM R04R/P6000FT -RA BR OVC002 19/19 A2967 RMK AO2 SFC VIS 3/4 RAB19 SLP046 P0002 T01890189
KEWR 201051Z 06004KT 2SM -RA BR BKN003 OVC006 19/19 A2966 RMK AO2 SFC VIS 4 SLP043 P0006 T01940194
KEWR 201151Z 03005KT 2SM BR OVC003 20/19 A2965 RMK AO2 SFC VIS 3 RAE39 SLP039 P0000 60009 70022 T02000194 10200 20189 58006
KEWR 201251Z 09005KT 1/2SM R04R/2000V3500FT BR OVC002 20/20 A2963 RMK AO2 SFC VIS 3/4 SLP033 T02000200
KEWR 201405Z 06003KT 1 1/2SM BR OVC003 21/21 A2963 RMK AO2 SFC VIS 3 T02110206
KEWR 201451Z 04003KT 1 1/2SM -DZ BR OVC004 22/21 A2961 RMK AO2 SFC VIS 3 DZB49 SLP028 VIS N 2 CIG 003V005 P0000 60000 T02220211 56012
KEWR 201551Z 07004KT 6SM BR OVC005 23/21 A2960 RMK AO2 DZE39 SLP023 P0000 T02280211
KEWR 201651Z 00000KT 6SM HZ OVC007 25/22 A2957 RMK AO2 SLP014 CIG 006V008 T02500222
KEWR 201751Z 05005KT 8SM SCT008 BKN012 OVC022 26/22 A2954 RMK AO2 SLP001 60000 T02560222 10256 20200 58026
KEWR 201901Z 00000KT 2 1/2SM R04R/1400VP6000FT +RA BR FEW007 BKN014 BKN035 OVC150 24/22 A2951 RMK AO2 VIS N 4 P0015 T02390222
KEWR 202001Z VRB04KT 7SM -RA FEW010 BKN035 BKN080 BKN150 OVC250 24/23 A2950 RMK AO2 TSE01 P0000 T02440228
KEWR 202051Z 09005KT 7SM -RA FEW015 SCT040 BKN100 BKN140 BKN250 24/23 A2948 RMK AO2 LTG DSNT SE-SW TSE01 SLP981 P0008 60055 T02390228 56020
KEWR 202151Z 12005KT 10SM FEW010 SCT040TCU SCT080 BKN130 BKN250 24/23 A2948 RMK AO2 LTG DSNT E RAE08B24E41 SLP981 TCU NW-NE VCSH NW-NE P0012 T02440228



Page loaded:  22:01 UTC  |   03:01 PM Pacific  |   04:01 PM Mountain  |   05:01 PM Central  |   06:01 PM Eastern

 

ADVISORIES

FORECASTS

FORECASTS

OBSERVATIONS

USER TOOLS

ABOUT US